Details From PAPG - Petersburg James A Johnson
To PAJN - Juneau Intl
Flight Number -
Tags Generated
Created
Modified
Stats Distance 107 nm / 199 km
Max Altitude 0 ft / 0 m
Waypoints 2
Social Downloads 1
Likes 0
Share VATSIM

Download

Looking for another format? Having issues loading an existing format? Contact us
Advertisement - Login to hide

Notes

Generated

Route

PAPG PAJN

ID Type Via Altitude Latitude Longitude Leg Dist Tot Dist Heading (true) Name
O PAPG APT - 0 ft / 0 m 56.79894˚ -132.95942˚ - 0 nm - -
O PAJN APT - 0 ft / 0 m 58.35793˚ -134.59756˚ 107 nm 107 nm 331° / 330° -

Altitude Profile

Advertisement - Login to hide

PAPG

Details ICAO PAPG (PSG)
Name PETERSBURG JAMES A JOHNSON
Region USA (Alaska)
Timezone America/Juneau (UTC-8.0)
Stats Elevation 105 ft / 32 m (AMSL)
Location 56.801651° -132.945289°
Runways 1
Magnetic Variation 18.752° E

METAR

PAPG 230256Z 00000KT 10SM BKN044 BKN050 OVC070 11/08 A2996 RMK AO2 SLPNO 60003 T01060083 51002

Decode

TAF

PAPG 222329Z 2300/2324 06005KT P6SM -SHRA SCT025 OVC035 TEMPO 2300/2304 VRB03KT 5SM -RA BR BKN015 OVC025 FM230400 VRB03KT P6SM VCSH SCT025 OVC040 FM231500 22005KT P6SM BKN050 AMD LTD TO CLD VIS AND WIND 2306/2315

Decode

Departure Runways

ID Width Length Bearing (true) Bearing (mag) Surface Threshold Offset Overrun Length
04 150 ft / 46 m 5,982 ft / 1,823 m 70.70° 51.95° Asphalt 0 ft / 0 m 0 ft / 0 m
22 150 ft / 46 m 5,982 ft / 1,823 m 250.73° 231.98° Asphalt 0 ft / 0 m 0 ft / 0 m

PAJN

Details ICAO PAJN (JNU)
Name Juneau Intl
Region USA (Alaska)
Timezone America/Juneau (UTC-8.0)
Stats Elevation 21 ft / 6 m (AMSL)
Location 58.354964° -134.576278°
Runways 1
Magnetic Variation 19.021° E

METAR

PAJN 230253Z 05004KT 5SM +RA BR SCT026 BKN037 OVC055 09/08 A2993

Decode

TAF

PAJN 230251Z 2303/2324 12005KT P6SM -SHRA FEW025 BKN035 OVC060 TEMPO 2303/2305 VRB05G15KT 5SM SHRA BR BKN025 OVC035 FM230600 09006KT P6SM VCSH FEW020 OVC045 FM231400 09004KT P6SM FEW020 BKN050 FM231900 22008KT P6SM BKN080

Decode

Destination Runways

ID Width Length Bearing (true) Bearing (mag) Surface Threshold Offset Overrun Length
08 150 ft / 46 m 8,430 ft / 2,570 m 104.87° 85.85° Asphalt 0 ft / 0 m 450 ft / 137 m
26 150 ft / 46 m 8,430 ft / 2,570 m 284.90° 265.88° Asphalt 0 ft / 0 m 225 ft / 69 m

Approach Navaids

Runway Type Ident Frequency Range Bearing (true) Bearing (mag) Slope Elevation
08 Localiser IJDL 109.90 MHz 18 nm / 33 km 84.92° 65.90° - 21 ft / 6 m (AMSL)
08 DME IJDL 109.90 MHz 18 nm / 33 km - - - 175 ft / 53 m (AMSL)

Popular Alternatives